createdAt,value
2022-11-13T00:00:50.702Z,46.17
2022-11-13T00:03:18.009Z,42.17
2022-11-13T00:05:45.415Z,45.00
2022-11-13T00:08:13.149Z,42.58
2022-11-13T00:10:40.662Z,37.35
2022-11-13T00:13:08.031Z,46.42
2022-11-13T00:15:35.346Z,40.70
2022-11-13T00:18:03.316Z,44.15
2022-11-13T00:20:31.241Z,47.88
2022-11-13T00:22:58.543Z,43.33
2022-11-13T00:25:25.916Z,47.78
2022-11-13T00:27:53.204Z,37.33
2022-11-13T00:30:21.540Z,43.70
2022-11-13T00:32:48.852Z,37.70
2022-11-13T00:35:16.221Z,37.20
2022-11-13T00:37:43.523Z,40.08
2022-11-13T00:40:11.423Z,41.38
2022-11-13T00:42:38.957Z,38.85
2022-11-13T00:45:09.078Z,43.13
2022-11-13T00:47:36.434Z,36.17
2022-11-13T00:50:03.790Z,38.97
2022-11-13T00:52:31.118Z,36.20
2022-11-13T00:54:58.488Z,38.70
2022-11-13T00:57:25.823Z,35.60
2022-11-13T00:59:53.251Z,32.00
2022-11-13T01:02:20.591Z,36.08
2022-11-13T01:04:48.121Z,38.55
2022-11-13T01:07:15.539Z,40.25
2022-11-13T01:09:42.922Z,42.50
2022-11-13T01:12:10.335Z,37.83
2022-11-13T01:14:37.629Z,37.25
2022-11-13T01:17:04.956Z,43.15
2022-11-13T01:19:32.257Z,33.38
2022-11-13T01:21:59.577Z,40.28
2022-11-13T01:24:26.873Z,36.85
2022-11-13T01:26:54.210Z,32.47
2022-11-13T01:29:21.496Z,37.13
2022-11-13T01:31:48.781Z,30.83
2022-11-13T01:34:18.282Z,42.08
2022-11-13T01:36:45.697Z,37.47
2022-11-13T01:39:13.540Z,34.58
2022-11-13T01:41:41.314Z,32.10
2022-11-13T01:44:13.379Z,32.63
2022-11-13T01:46:45.122Z,33.83
2022-11-13T01:49:12.392Z,31.83
2022-11-13T01:52:02.746Z,30.13
2022-11-13T01:54:32.352Z,29.42
2022-11-13T01:57:00.056Z,30.42
2022-11-13T01:59:31.844Z,28.10
2022-11-13T02:01:59.410Z,30.87
2022-11-13T02:04:27.367Z,28.60
2022-11-13T02:07:09.053Z,25.50
2022-11-13T02:09:44.031Z,31.98
2022-11-13T02:12:13.896Z,27.20
2022-11-13T02:14:43.021Z,31.30
2022-11-13T02:17:12.453Z,28.67
2022-11-13T02:19:41.811Z,28.30
2022-11-13T02:22:16.309Z,28.73
2022-11-13T02:24:47.160Z,34.53
2022-11-13T02:27:19.960Z,30.42
2022-11-13T02:29:48.832Z,26.73
2022-11-13T02:32:16.103Z,29.52
2022-11-13T02:34:43.387Z,28.58
2022-11-13T02:37:10.701Z,33.15
2022-11-13T02:39:37.966Z,34.33
2022-11-13T02:42:05.846Z,25.30
2022-11-13T02:44:33.188Z,32.85
2022-11-13T02:47:00.477Z,35.88
2022-11-13T02:49:28.829Z,29.90
2022-11-13T02:51:56.102Z,30.98
2022-11-13T02:54:23.407Z,31.73
2022-11-13T02:56:50.809Z,30.77
2022-11-13T02:59:18.123Z,28.85
2022-11-13T03:01:45.806Z,33.40
2022-11-13T03:04:13.205Z,30.65
2022-11-13T03:06:40.624Z,26.60
2022-11-13T03:09:07.975Z,30.15
2022-11-13T03:11:36.509Z,25.88
2022-11-13T03:14:04.032Z,32.47
2022-11-13T03:16:31.656Z,24.58
2022-11-13T03:18:58.948Z,28.08
2022-11-13T03:21:26.309Z,27.63
2022-11-13T03:23:54.681Z,31.58
2022-11-13T03:26:22.415Z,28.33
2022-11-13T03:28:49.761Z,32.58
2022-11-13T03:31:17.216Z,30.98
2022-11-13T03:33:44.590Z,31.80
2022-11-13T03:36:12.257Z,29.08
2022-11-13T03:38:39.857Z,29.83
2022-11-13T03:41:07.484Z,37.95
2022-11-13T03:43:34.864Z,33.15
2022-11-13T03:46:02.212Z,39.55
2022-11-13T03:48:30.010Z,39.08
2022-11-13T03:50:57.752Z,32.55
2022-11-13T03:53:25.298Z,41.45
2022-11-13T03:55:53.348Z,39.65
2022-11-13T03:58:21.227Z,40.17
2022-11-13T04:00:48.782Z,42.42
2022-11-13T04:03:16.180Z,45.22
2022-11-13T04:05:44.047Z,42.35
2022-11-13T04:08:11.427Z,47.92
2022-11-13T04:10:38.745Z,51.45
2022-11-13T04:13:06.113Z,51.03
2022-11-13T04:15:33.675Z,47.05
2022-11-13T04:18:01.087Z,44.88
2022-11-13T04:20:28.455Z,43.85
2022-11-13T04:22:57.086Z,41.60
2022-11-13T04:25:24.909Z,45.78
2022-11-13T04:27:52.803Z,46.08
2022-11-13T04:30:21.091Z,47.72
2022-11-13T04:32:48.380Z,47.15
2022-11-13T04:35:15.731Z,44.83
2022-11-13T04:37:42.993Z,51.92
2022-11-13T04:40:10.775Z,55.10
2022-11-13T04:42:50.033Z,50.67
2022-11-13T04:45:21.357Z,49.15
2022-11-13T04:47:48.952Z,49.88
2022-11-13T04:50:17.046Z,46.60
2022-11-13T04:52:44.557Z,54.92
2022-11-13T04:55:12.710Z,45.92
2022-11-13T04:57:40.150Z,43.70
2022-11-13T05:00:08.227Z,51.55
2022-11-13T05:02:35.654Z,44.88
2022-11-13T05:05:05.291Z,50.53
2022-11-13T05:07:33.192Z,45.92
2022-11-13T05:10:00.618Z,53.80
2022-11-13T05:12:28.046Z,47.53
2022-11-13T05:14:55.504Z,53.50
2022-11-13T05:17:23.341Z,46.15
2022-11-13T05:19:51.134Z,38.92
2022-11-13T05:22:18.437Z,40.83
2022-11-13T05:24:46.167Z,41.53
2022-11-13T05:27:17.365Z,38.47
2022-11-13T05:29:45.178Z,48.05
2022-11-13T05:32:12.496Z,44.47
2022-11-13T05:34:40.863Z,47.28
2022-11-13T05:37:08.155Z,50.42
2022-11-13T05:39:35.511Z,43.53
2022-11-13T05:42:02.944Z,43.42
2022-11-13T05:44:30.436Z,48.88
2022-11-13T05:46:57.857Z,49.00
2022-11-13T05:49:25.927Z,48.08
2022-11-13T05:51:55.425Z,40.33
2022-11-13T05:54:22.710Z,49.25
2022-11-13T05:56:50.034Z,45.08
2022-11-13T05:59:17.353Z,52.15
2022-11-13T06:01:44.720Z,50.20
2022-11-13T06:04:12.089Z,52.28
2022-11-13T06:06:39.552Z,44.47
2022-11-13T06:09:07.655Z,46.10
2022-11-13T06:11:35.006Z,50.78
2022-11-13T06:14:02.658Z,37.78
2022-11-13T06:16:31.247Z,40.05
2022-11-13T06:18:59.772Z,40.28
2022-11-13T06:21:29.154Z,51.72
2022-11-13T06:23:57.660Z,62.70
2022-11-13T06:26:26.286Z,46.70
2022-11-13T06:28:53.648Z,85.22
2022-11-13T06:31:22.534Z,58.28
2022-11-13T06:33:50.267Z,51.42
2022-11-13T06:36:19.500Z,50.28
2022-11-13T06:38:48.056Z,57.33
2022-11-13T06:41:16.506Z,51.85
2022-11-13T06:43:45.370Z,57.88
2022-11-13T06:46:14.226Z,54.65
2022-11-13T06:48:41.617Z,60.53
2022-11-13T06:51:10.819Z,75.35
2022-11-13T06:53:38.148Z,59.47
2022-11-13T06:56:06.314Z,65.97
2022-11-13T06:58:34.051Z,82.80
2022-11-13T07:01:13.097Z,110.72
2022-11-13T07:03:40.757Z,72.32
2022-11-13T07:06:09.523Z,78.35
2022-11-13T07:08:37.042Z,75.82
2022-11-13T07:11:04.349Z,111.95
2022-11-13T07:13:31.702Z,84.85
2022-11-13T07:16:15.524Z,114.13
2022-11-13T07:18:44.051Z,148.20
2022-11-13T07:21:15.561Z,88.60
2022-11-13T07:23:43.696Z,85.70
2022-11-13T07:26:14.365Z,61.78
2022-11-13T07:28:41.713Z,142.27
2022-11-13T07:31:10.277Z,222.48
2022-11-13T07:33:37.644Z,42.47
2022-11-13T07:36:05.101Z,100.25
2022-11-13T07:38:32.448Z,98.97
2022-11-13T07:40:59.876Z,73.93
2022-11-13T07:43:27.438Z,69.13
2022-11-13T07:45:55.511Z,49.83
2022-11-13T07:48:23.399Z,57.03
2022-11-13T07:50:51.214Z,46.55
2022-11-13T07:53:19.056Z,55.65
2022-11-13T07:55:46.763Z,53.15
2022-11-13T07:58:15.450Z,72.78
2022-11-13T08:00:42.922Z,42.40
2022-11-13T08:03:12.417Z,56.55
2022-11-13T08:05:39.859Z,45.90
2022-11-13T08:08:07.620Z,41.20
2022-11-13T08:10:36.397Z,43.63
2022-11-13T08:13:10.857Z,56.53
2022-11-13T08:15:38.336Z,47.60
2022-11-13T08:18:06.173Z,36.10
2022-11-13T08:20:34.156Z,37.63
2022-11-13T08:23:02.213Z,41.70
2022-11-13T08:25:30.068Z,39.00
2022-11-13T08:27:57.405Z,34.55
2022-11-13T08:30:25.285Z,29.88
2022-11-13T08:32:52.646Z,29.38
2022-11-13T08:35:22.925Z,30.45
2022-11-13T08:40:20.338Z,27.27
2022-11-13T08:42:47.789Z,30.73
2022-11-13T08:45:15.160Z,23.60
2022-11-13T08:47:42.532Z,28.25
2022-11-13T08:50:09.962Z,26.45
2022-11-13T08:52:37.315Z,24.55
2022-11-13T08:55:04.989Z,26.55
2022-11-13T08:57:32.255Z,24.27
2022-11-13T08:59:59.623Z,28.25
2022-11-13T09:02:27.174Z,25.45
2022-11-13T09:04:54.500Z,23.67
2022-11-13T09:07:26.980Z,22.00
2022-11-13T09:09:54.859Z,21.27
2022-11-13T09:12:22.232Z,28.00
2022-11-13T09:14:49.552Z,23.92
2022-11-13T09:17:16.935Z,24.20
2022-11-13T09:19:44.644Z,24.30
2022-11-13T09:22:12.033Z,24.00
2022-11-13T09:24:39.737Z,22.67
2022-11-13T09:27:07.096Z,27.67
2022-11-13T09:29:35.557Z,20.73
2022-11-13T09:32:02.989Z,21.50
2022-11-13T09:34:30.345Z,22.88
2022-11-13T09:36:57.737Z,20.38
2022-11-13T09:39:25.002Z,16.63
2022-11-13T09:42:01.924Z,17.23
2022-11-13T09:44:29.168Z,17.88
2022-11-13T09:46:59.876Z,25.10
2022-11-13T09:49:27.139Z,20.15
2022-11-13T09:51:56.186Z,22.80
2022-11-13T09:54:24.482Z,17.38
2022-11-13T09:57:10.315Z,19.83
2022-11-13T09:59:57.905Z,17.92
2022-11-13T10:02:28.298Z,17.33
2022-11-13T10:05:01.776Z,15.43
2022-11-13T10:07:36.140Z,19.10
2022-11-13T10:10:18.513Z,16.52
2022-11-13T10:12:47.796Z,15.57
2022-11-13T10:15:16.266Z,11.77
2022-11-13T10:17:46.860Z,19.55
2022-11-13T10:20:15.974Z,15.30
2022-11-13T10:22:51.480Z,16.90
2022-11-13T10:25:29.752Z,12.13
2022-11-13T10:28:27.979Z,16.73
2022-11-13T10:30:54.072Z,10.48
2022-11-13T10:33:22.651Z,13.27
2022-11-13T10:35:49.954Z,8.70
2022-11-13T10:38:22.187Z,13.43
2022-11-13T10:40:49.503Z,12.45
2022-11-13T10:43:20.340Z,11.65
2022-11-13T10:45:58.014Z,15.48
2022-11-13T10:48:30.021Z,14.15
2022-11-13T10:50:59.168Z,11.75
2022-11-13T10:53:28.338Z,14.57
2022-11-13T10:55:57.914Z,12.52
2022-11-13T10:58:26.030Z,14.90
2022-11-13T11:00:53.629Z,14.30
2022-11-13T11:03:22.650Z,15.05
2022-11-13T11:06:00.660Z,14.18
2022-11-13T11:08:35.314Z,13.65
2022-11-13T11:11:23.664Z,11.27
2022-11-13T11:13:51.197Z,10.55
2022-11-13T11:16:23.520Z,10.63
2022-11-13T11:19:11.360Z,14.60
2022-11-13T11:21:41.218Z,10.82
2022-11-13T11:24:14.743Z,13.75
2022-11-13T11:26:49.091Z,12.43
2022-11-13T11:29:22.562Z,13.65
2022-11-13T11:31:49.843Z,16.15
2022-11-13T11:34:20.404Z,12.98
2022-11-13T11:36:54.045Z,11.20
2022-11-13T11:39:29.232Z,11.25
2022-11-13T11:42:11.092Z,18.23
2022-11-13T11:44:42.209Z,11.88
2022-11-13T11:47:15.606Z,10.23
2022-11-13T11:49:44.160Z,10.68
2022-11-13T11:52:27.281Z,12.02
2022-11-13T11:55:13.452Z,12.43
2022-11-13T11:57:50.976Z,9.80
2022-11-13T12:00:19.918Z,12.27
2022-11-13T12:03:02.438Z,9.95
2022-11-13T12:05:33.229Z,10.70
2022-11-13T12:08:21.352Z,16.30
2022-11-13T12:10:53.885Z,11.07
2022-11-13T12:13:26.466Z,10.70
2022-11-13T12:16:14.052Z,9.32
2022-11-13T12:18:56.634Z,10.18
2022-11-13T12:21:26.072Z,8.50
2022-11-13T12:24:12.017Z,9.75
2022-11-13T12:27:04.017Z,14.23
2022-11-13T12:29:50.199Z,9.18
2022-11-13T12:32:30.391Z,13.43
2022-11-13T12:34:59.968Z,11.07
2022-11-13T12:37:37.507Z,12.40
2022-11-13T12:40:09.873Z,10.05
2022-11-13T12:42:42.995Z,15.52
2022-11-13T12:45:10.316Z,17.52
2022-11-13T12:47:37.768Z,15.02
2022-11-13T12:50:06.880Z,12.30
2022-11-13T12:52:34.232Z,15.05
2022-11-13T12:55:09.100Z,15.45
2022-11-13T12:57:36.898Z,11.88
2022-11-13T13:00:23.978Z,8.80
2022-11-13T13:03:08.597Z,8.77
2022-11-13T13:05:41.926Z,8.50
2022-11-13T13:08:15.073Z,13.52
2022-11-13T13:11:00.602Z,14.27
2022-11-13T13:13:40.416Z,9.80
2022-11-13T13:16:08.834Z,13.77
2022-11-13T13:18:37.757Z,11.60
2022-11-13T13:21:07.484Z,13.38
2022-11-13T13:23:39.516Z,8.93
2022-11-13T13:26:36.361Z,13.00
2022-11-13T13:29:15.137Z,13.27
2022-11-13T13:31:46.982Z,15.25
2022-11-13T13:34:24.901Z,10.80
2022-11-13T13:36:55.269Z,11.93
2022-11-13T13:39:38.209Z,10.70
2022-11-13T13:42:19.836Z,12.40
2022-11-13T13:44:47.224Z,16.60
2022-11-13T13:47:26.382Z,19.52
2022-11-13T13:49:53.785Z,14.38
2022-11-13T13:52:29.321Z,14.27
2022-11-13T13:54:57.392Z,19.33
2022-11-13T13:57:24.808Z,12.90
2022-11-13T13:59:52.453Z,14.05
2022-11-13T14:02:23.203Z,16.95
2022-11-13T14:04:51.688Z,13.13
2022-11-13T14:07:29.369Z,16.60
2022-11-13T14:10:08.823Z,13.43
2022-11-13T14:12:36.256Z,13.00
2022-11-13T14:15:06.068Z,17.30
2022-11-13T14:17:34.806Z,15.02
2022-11-13T14:20:02.205Z,15.02
2022-11-13T14:22:29.819Z,14.52
2022-11-13T14:24:59.513Z,18.05
2022-11-13T14:27:28.448Z,15.68
2022-11-13T14:30:02.643Z,18.30
2022-11-13T14:32:33.944Z,15.48
2022-11-13T14:35:02.789Z,13.32
2022-11-13T14:37:40.527Z,16.45
2022-11-13T14:40:13.675Z,20.42
2022-11-13T14:42:45.781Z,17.27
2022-11-13T14:45:13.053Z,20.33
2022-11-13T14:47:40.797Z,17.77
2022-11-13T14:50:18.833Z,16.35
2022-11-13T14:52:55.928Z,17.90
2022-11-13T14:55:24.490Z,15.63
2022-11-13T14:57:51.984Z,18.25
2022-11-13T15:00:20.125Z,19.30
2022-11-13T15:02:47.414Z,20.17
2022-11-13T15:05:16.366Z,17.05
2022-11-13T15:07:45.645Z,19.58
2022-11-13T15:10:15.472Z,17.90
2022-11-13T15:12:42.928Z,18.85
2022-11-13T15:15:14.947Z,20.83
2022-11-13T15:17:45.528Z,15.98
2022-11-13T15:20:24.612Z,18.00
2022-11-13T15:22:55.324Z,19.88
2022-11-13T15:25:23.725Z,20.80
2022-11-13T15:27:51.209Z,20.00
2022-11-13T15:30:19.529Z,21.48
2022-11-13T15:32:49.102Z,20.52
2022-11-13T15:35:18.373Z,23.33
2022-11-13T15:37:45.848Z,18.88
2022-11-13T15:40:14.251Z,23.23
2022-11-13T15:42:43.710Z,23.83
2022-11-13T15:45:15.457Z,25.10
2022-11-13T15:47:43.172Z,20.17
2022-11-13T15:50:15.579Z,21.83
2022-11-13T15:52:48.054Z,18.75
2022-11-13T15:55:33.929Z,22.13
2022-11-13T15:58:02.643Z,21.88
2022-11-13T16:00:30.214Z,20.88
2022-11-13T16:02:58.185Z,25.63
2022-11-13T16:05:26.419Z,19.65
2022-11-13T16:07:54.349Z,24.75
2022-11-13T16:10:27.818Z,24.00
2022-11-13T16:12:55.515Z,21.58
2022-11-13T16:15:22.887Z,26.90
2022-11-13T16:17:52.060Z,23.52
2022-11-13T16:20:19.825Z,25.02
2022-11-13T16:22:47.421Z,28.40
2022-11-13T16:25:19.951Z,30.88
2022-11-13T16:27:47.752Z,29.55
2022-11-13T16:30:23.621Z,32.58
2022-11-13T16:32:51.041Z,31.45
2022-11-13T16:35:19.514Z,31.20
2022-11-13T16:37:46.934Z,29.98
2022-11-13T16:40:24.771Z,26.75
2022-11-13T16:42:52.217Z,33.17
2022-11-13T16:45:20.234Z,28.58
2022-11-13T16:47:47.572Z,26.45
2022-11-13T16:50:19.437Z,26.95
2022-11-13T16:52:46.778Z,31.70
2022-11-13T16:55:14.351Z,23.00
2022-11-13T16:57:41.653Z,24.90
2022-11-13T17:00:12.165Z,24.67
2022-11-13T17:02:39.540Z,24.67
2022-11-13T17:05:07.247Z,33.72
2022-11-13T17:07:34.583Z,31.58
2022-11-13T17:10:29.547Z,27.77
2022-11-13T17:12:53.130Z,31.02
2022-11-13T17:15:20.919Z,29.77
2022-11-13T17:17:48.526Z,30.95
2022-11-13T17:20:18.342Z,29.50
2022-11-13T17:22:48.520Z,35.20
2022-11-13T17:25:20.626Z,33.25
2022-11-13T17:27:48.052Z,30.80
2022-11-13T17:30:18.233Z,38.70
2022-11-13T17:32:45.593Z,43.55
2022-11-13T17:35:13.227Z,44.50
2022-11-13T17:37:41.065Z,30.88
2022-11-13T17:40:08.733Z,51.35
2022-11-13T17:42:36.509Z,61.92
2022-11-13T17:45:04.007Z,39.40
2022-11-13T17:47:31.373Z,47.53
2022-11-13T17:50:03.922Z,44.10
2022-11-13T17:52:34.342Z,60.33
2022-11-13T17:55:05.974Z,57.40
2022-11-13T17:57:33.763Z,53.70
2022-11-13T18:00:01.058Z,46.83
2022-11-13T18:02:28.548Z,40.88
2022-11-13T18:04:59.068Z,43.72
2022-11-13T18:07:27.013Z,46.47
2022-11-13T18:09:54.363Z,42.97
2022-11-13T18:12:21.742Z,38.92
2022-11-13T18:14:52.562Z,38.58
2022-11-13T18:17:20.560Z,46.33
2022-11-13T18:19:48.018Z,42.17
2022-11-13T18:22:15.764Z,37.53
2022-11-13T18:24:43.303Z,37.00
2022-11-13T18:27:11.108Z,32.58
2022-11-13T18:29:38.458Z,37.85
2022-11-13T18:32:05.822Z,36.15
2022-11-13T18:34:33.218Z,38.80
2022-11-13T18:37:00.648Z,33.63
2022-11-13T18:39:27.938Z,35.97
2022-11-13T18:41:59.209Z,29.67
2022-11-13T18:44:26.522Z,47.00
2022-11-13T18:46:53.838Z,41.30
2022-11-13T18:49:21.215Z,36.42
2022-11-13T18:51:48.996Z,37.20
2022-11-13T18:54:16.376Z,43.35
2022-11-13T18:56:43.822Z,39.38
2022-11-13T18:59:11.541Z,39.72
2022-11-13T19:01:40.032Z,31.23
2022-11-13T19:04:22.753Z,49.03
2022-11-13T19:06:51.227Z,47.72
2022-11-13T19:09:18.629Z,31.70
2022-11-13T19:11:46.046Z,30.45
2022-11-13T19:14:17.514Z,30.63
2022-11-13T19:16:45.104Z,32.00
2022-11-13T19:19:15.461Z,34.30
2022-11-13T19:21:43.191Z,33.42
2022-11-13T19:24:11.824Z,36.35
2022-11-13T19:26:40.280Z,34.13
2022-11-13T19:29:07.997Z,34.67
2022-11-13T19:31:35.495Z,35.97
2022-11-13T19:34:04.310Z,33.67
2022-11-13T19:36:32.549Z,27.70
2022-11-13T19:39:00.127Z,30.80
2022-11-13T19:41:28.280Z,34.13
2022-11-13T19:43:55.857Z,31.17
2022-11-13T19:46:23.484Z,32.70
2022-11-13T19:48:50.869Z,31.75
2022-11-13T19:51:19.752Z,32.20
2022-11-13T19:53:47.543Z,26.27
2022-11-13T19:56:16.204Z,32.58
2022-11-13T19:58:44.468Z,32.88
2022-11-13T20:01:12.856Z,33.63
2022-11-13T20:03:40.528Z,30.70
2022-11-13T20:06:09.978Z,33.10
2022-11-13T20:08:37.623Z,34.03
2022-11-13T20:11:06.036Z,31.45
2022-11-13T20:13:35.535Z,34.28
2022-11-13T20:16:03.509Z,30.65
2022-11-13T20:18:31.264Z,33.50
2022-11-13T20:20:58.852Z,36.63
2022-11-13T20:23:26.235Z,43.47
2022-11-13T20:25:54.757Z,41.97
2022-11-13T20:28:22.064Z,36.97
2022-11-13T20:30:49.486Z,38.78
2022-11-13T20:33:22.176Z,38.47
2022-11-13T20:35:56.265Z,36.78
2022-11-13T20:38:23.599Z,39.75
2022-11-13T20:40:51.310Z,40.42
2022-11-13T20:43:18.746Z,43.28
2022-11-13T20:45:46.209Z,46.42
2022-11-13T20:48:13.589Z,36.17
2022-11-13T20:50:40.963Z,39.00
2022-11-13T20:53:08.517Z,50.50
2022-11-13T20:55:35.877Z,45.05
2022-11-13T20:58:03.224Z,49.90
2022-11-13T21:00:30.517Z,44.28
2022-11-13T21:02:58.037Z,41.75
2022-11-13T21:05:25.394Z,46.05
2022-11-13T21:07:52.876Z,45.65
2022-11-13T21:10:20.209Z,49.83
2022-11-13T21:12:47.614Z,47.65
2022-11-13T21:15:17.671Z,44.63
2022-11-13T21:17:45.101Z,41.63
2022-11-13T21:20:12.881Z,44.42
2022-11-13T21:22:40.373Z,43.78
2022-11-13T21:25:08.034Z,41.15
2022-11-13T21:27:35.403Z,41.35
2022-11-13T21:30:02.708Z,42.20
2022-11-13T21:32:31.240Z,45.40
2022-11-13T21:34:59.298Z,45.45
2022-11-13T21:37:26.944Z,39.13
2022-11-13T21:39:54.286Z,42.13
2022-11-13T21:42:21.708Z,40.60
2022-11-13T21:44:49.142Z,43.55
2022-11-13T21:47:16.573Z,48.45
2022-11-13T21:49:43.951Z,44.33
2022-11-13T21:52:11.210Z,36.90
2022-11-13T21:54:38.564Z,40.83
2022-11-13T21:57:06.792Z,41.95
2022-11-13T21:59:34.194Z,49.85
2022-11-13T22:02:01.575Z,48.08
2022-11-13T22:04:29.009Z,50.88
2022-11-13T22:06:56.477Z,51.15
2022-11-13T22:09:25.341Z,45.33
2022-11-13T22:11:52.936Z,49.75
2022-11-13T22:14:20.331Z,50.42
2022-11-13T22:16:48.140Z,52.28
2022-11-13T22:19:16.926Z,52.05
2022-11-13T22:21:46.245Z,46.65
2022-11-13T22:24:14.041Z,56.50
2022-11-13T22:26:42.601Z,47.25
2022-11-13T22:29:10.227Z,41.80
2022-11-13T22:31:38.082Z,46.58
2022-11-13T22:34:05.797Z,42.72
2022-11-13T22:36:34.291Z,44.58
2022-11-13T22:39:01.749Z,46.97
2022-11-13T22:41:32.068Z,45.60
2022-11-13T22:44:00.782Z,52.88
2022-11-13T22:46:29.584Z,51.72
2022-11-13T22:48:57.622Z,57.10
2022-11-13T22:51:26.720Z,42.50
2022-11-13T22:53:54.984Z,41.72
2022-11-13T22:56:23.697Z,47.83
2022-11-13T22:58:51.116Z,55.35
2022-11-13T23:01:22.750Z,51.95
2022-11-13T23:03:50.777Z,53.60
2022-11-13T23:06:19.581Z,50.67
2022-11-13T23:08:47.225Z,45.70
2022-11-13T23:11:18.839Z,53.08
2022-11-13T23:13:47.361Z,42.97
2022-11-13T23:16:14.773Z,45.30
2022-11-13T23:18:42.122Z,42.28
2022-11-13T23:21:10.358Z,43.40
2022-11-13T23:23:38.437Z,48.00
2022-11-13T23:26:06.506Z,41.58
2022-11-13T23:28:33.945Z,45.90
2022-11-13T23:31:01.283Z,40.22
2022-11-13T23:33:28.749Z,47.25
2022-11-13T23:35:56.281Z,46.85
2022-11-13T23:38:23.641Z,43.00
2022-11-13T23:40:54.669Z,41.90
2022-11-13T23:43:22.467Z,41.38
2022-11-13T23:45:50.137Z,39.55
2022-11-13T23:48:17.490Z,44.25
2022-11-13T23:50:45.255Z,47.65
2022-11-13T23:53:12.774Z,40.65
2022-11-13T23:55:41.008Z,41.83
2022-11-13T23:58:10.817Z,39.30
